LOWI 200050Z AUTO VRB02KT 9999 FEW080 SCT090 BKN100 15/14 Q1028 LOWI 200020Z AUTO 31003KT 9999 FEW007 SCT090 BKN110 15/14 Q1028 LOWI 192350Z AUTO 28005KT 9999 BKN090 15/14 Q1028 LOWI 192320Z AUTO 29005KT 250V330 9999 FEW090 BKN100 15/14 Q1028 LOWI 192250Z AUTO 26009KT 9999 FEW090 BKN110 15/14 Q1028 LOWI 192220Z AUTO 26006KT 9999 FEW100 15/14 Q1028 LOWI 192150Z AUTO VRB01KT 9999 NSC 15/15 Q1028 LOWI 192120Z AUTO 05004KT 020V080 9999 //////CB FEW100 BKN110 15/14 Q1028 LOWI 192050Z 07003KT 020V130 9999 -SHRA FEW060CB SCT080 BKN120 15/14 Q1028 NOSIG LOWI 192020Z 13004KT 090V190 9999 -RA VCTS FEW060CB SCT080 BKN120 15/14 Q1028 BECMG NSW LOWI 191950Z VRB02KT 9999 -RA VCTS SCT040CB SCT080 BKN120 15/13 Q1028 RETS BECMG NSW LOWI 191920Z 32019G30KT 6000 TSRA SCT040CB SCT080 BKN120 16/13 Q1028 RESHRA BECMG NSW LOWI 191850Z 15010KT 110V190 9999 TS FEW070 FEW070CB SCT080 BKN120 22/14 Q1024 TEMPO 27015G30KT TSRA LOWI 191820Z 15006KT 080V190 9999 TS FEW070 FEW070CB SCT080 BKN120 24/13 Q1023 TEMPO 27015G30KT TSRA LOWI 191750Z 19007KT 140V250 9999 VCTS FEW070 FEW070CB SCT080 BKN120 25/12 Q1022 TEMPO TS LOWI 191720Z 15009KT 120V190 9999 FEW070 FEW070CB SCT080 BKN120 26/12 Q1022 NOSIG LOWI 191650Z 06006KT 010V090 9999 VCTS FEW070 FEW070CB SCT080 BKN110 27/13 Q1021 TEMPO 27015G30KT TSRA LOWI 191620Z 09006KT 040V130 9999 VCTS FEW070 FEW070CB SCT080 28/13 Q1021 TEMPO TS LOWI 191550Z 05005KT 320V120 9999 FEW070 FEW070CB SCT080 29/11 Q1021 TEMPO TS LOWI 191520Z VRB03KT 9999 FEW070 FEW070CB SCT080 29/12 Q1021 TEMPO TS LOWI 191450Z VRB04KT 9999 VCTS FEW070 FEW070CB SCT080 29/10 Q1021 TEMPO TS LOWI 191420Z VRB02KT 9999 FEW070 FEW070CB SCT080 29/14 Q1021 TEMPO TS LOWI 191350Z 06010KT 9999 FEW070 FEW070TCU SCT080 30/10 Q1021 NOSIG LOWI 191320Z 02009KT 9999 FEW070 FEW070CB SCT080 30/12 Q1021 NOSIG LOWI 191250Z 01008KT 320V040 9999 -SHRA FEW070 FEW070CB SCT080 30/10 Q1021 NOSIG LOWI 191220Z VRB04KT 9999 FEW065 SCT080 31/10 Q1021 NOSIG LOWI 191150Z 09004KT 040V140 9999 FEW065 SCT080 30/09 Q1022 NOSIG LOWI 191120Z 05004KT 350V120 9999 FEW065 SCT080 29/10 Q1022 NOSIG LOWI 191050Z VRB02KT 9999 FEW080 28/11 Q1022 NOSIG LOWI 191020Z VRB04KT 9999 FEW080 27/10 Q1023 NOSIG LOWI 190950Z 27005KT 210V340 9999 FEW070 26/11 Q1023 NOSIG LOWI 190920Z 29005KT 240V340 9999 FEW065 25/10 Q1024 NOSIG LOWI 190850Z 28008KT 240V300 9999 FEW065 24/12 Q1024 NOSIG LOWI 190820Z 27010KT 9999 FEW070 23/11 Q1024 NOSIG LOWI 190750Z 27010KT 9999 FEW070 21/12 Q1024 NOSIG LOWI 190720Z 28010KT 9999 FEW070 20/11 Q1025 NOSIG LOWI 190650Z 27008KT 9999 FEW070 19/11 Q1025 NOSIG LOWI 190620Z 29008KT 9999 FEW070 17/11 Q1025 NOSIG LOWI 190550Z 28009KT 9999 FEW070 15/11 Q1025 NOSIG LOWI 190520Z 27004KT CAVOK 15/10 Q1025 NOSIG LOWI 190450Z 28003KT 260V320 CAVOK 13/10 Q1025 NOSIG LOWI 190420Z VRB01KT CAVOK 12/09 Q1025 NOSIG LOWI 190350Z VRB01KT CAVOK 12/09 Q1025 NOSIG LOWI 190320Z AUTO VRB01KT 9999 NCD 12/09 Q1024 LOWI 190250Z AUTO VRB02KT 9999 NCD 12/09 Q1024 LOWI 190220Z AUTO 25002KT 9999 NCD 12/09 Q1024 LOWI 190150Z AUTO VRB02KT 9999 NCD 13/09 Q1024 LOWI 190120Z AUTO VRB01KT 9999 NCD 13/09 Q1024 LOWI 190050Z AUTO VRB02KT 9999 NCD 13/09 Q1024 LOWI 190020Z AUTO VRB02KT 9999 NCD 14/09 Q1024 LOWI 182350Z AUTO 28002KT 9999 NCD 15/10 Q1024 LOWI 182320Z AUTO VRB02KT 9999 NCD 15/09 Q1025 LOWI 182250Z AUTO 09003KT 9999 NCD 16/09 Q1024 LOWI 182220Z AUTO 13009KT 100V160 9999 NCD 18/09 Q1024 LOWI 182150Z AUTO 10005KT 9999 NCD 17/10 Q1024 LOWI 182120Z AUTO VRB02KT 9999 NCD 16/11 Q1024 LOWI 182050Z VRB02KT CAVOK 18/10 Q1024 NOSIG LOWI 182020Z VRB02KT CAVOK 18/10 Q1024 NOSIG LOWI 181950Z 35002KT CAVOK 18/10 Q1023 NOSIG LOWI 181920Z VRB02KT CAVOK 20/10 Q1023 NOSIG LOWI 181850Z 08007KT CAVOK 21/10 Q1022 NOSIG LOWI 181820Z 07009KT 9999 FEW080 22/10 Q1022 NOSIG LOWI 181750Z 06010KT 9999 FEW080 22/10 Q1022 NOSIG LOWI 181720Z 08014KT 050V110 9999 FEW080 24/10 Q1021 NOSIG LOWI 181650Z 08014KT 9999 R08/1300U R26/P1500U FEW080 25/08 Q1021 NOSIG LOWI 181620Z 08009KT 060V120 9999 FEW080 26/08 Q1021 NOSIG LOWI 181550Z 07005KT 040V100 9999 FEW080 27/07 Q1021 NOSIG LOWI 181520Z 08006KT 050V120 9999 FEW080 26/06 Q1021 NOSIG LOWI 181450Z 08006KT 050V110 9999 FEW080 26/06 Q1021 NOSIG LOWI 181420Z 07008KT 030V110 9999 FEW080 SCT100 26/07 Q1022 NOSIG LOWI 181350Z 08006KT 030V120 9999 FEW080 SCT100 26/07 Q1022 NOSIG LOWI 181320Z 07006KT 030V110 9999 FEW080 BKN100 25/09 Q1022 NOSIG

METAR Messwerte "INNSBRUCK AIRPOR" LOWI

Zurück zur Übersicht

Ortsname
Ländercode / m ü. NN
Zeit Temperatur Taupunkt Rel.
Luftfeuchte
Luftdruck:
Altimeter
NN
Station
Wind in Beaufort
(Knoten)
Sichtweite
(Meter)
Wolken
(Meter über Grund)
Wettererscheinung
INNSBRUCK AIRPOR
AT 570
Fr 20.05. 02:50151494 %1028
1028
961
Uml 1 (2)>= 10000Stark bewölkt (3000)
Wolkig (2700)
Leicht bewölkt (2400)
 
INNSBRUCK AIRPOR
AT 570
Fr 20.05. 02:20151494 %1028
1028
961
NW 2 (3)>= 10000Stark bewölkt (3400)
Wolkig (2700)
Leicht bewölkt (210)
 
INNSBRUCK AIRPOR
AT 570
Fr 20.05. 01:50151494 %1028
1028
961
W 2 (5)>= 10000Stark bewölkt (2700) 
INNSBRUCK AIRPOR
AT 570
Fr 20.05. 01:20151494 %1028
1028
961
WNW 2 (5)
WSW - NNW
>= 10000Stark bewölkt (3000)
Leicht bewölkt (2700)
 
INNSBRUCK AIRPOR
AT 570
Fr 20.05. 00:50151494 %1028
1028
961
W 3 (9)>= 10000Stark bewölkt (3400)
Leicht bewölkt (2700)
 
INNSBRUCK AIRPOR
AT 570
Fr 20.05. 00:20151494 %1028
1028
961
W 2 (6)>= 10000Leicht bewölkt (3000) 
INNSBRUCK AIRPOR
AT 570
Do 19.05. 23:501515100 %1028
1028
961
Uml 1 (1)>= 10000Nicht signifikant 
INNSBRUCK AIRPOR
AT 570
Do 19.05. 23:20151494 %1028
1028
961
NO 2 (4)
NNO - O
>= 10000Stark bewölkt (3400)
Leicht bewölkt (3000)
 
INNSBRUCK AIRPOR
AT 570
Do 19.05. 22:50151494 %1028
1028
961
ONO 2 (3)
NNO - SO
>= 10000Stark bewölkt (3700)
Wolkig (2400)
Leicht bewölkt Cb (1800)
Regen-Schauer (schwach)
INNSBRUCK AIRPOR
AT 570
Do 19.05. 22:20151494 %1028
1028
961
SO 2 (4)
O - S
>= 10000Stark bewölkt (3700)
Wolkig (2400)
Leicht bewölkt Cb (1800)
Regen (schwach)
INNSBRUCK AIRPOR
AT 570
Do 19.05. 21:50151388 %1028
1028
961
Uml 1 (2)>= 10000Stark bewölkt (3700)
Wolkig (2400)
Wolkig Cb (1200)
Regen (schwach)
INNSBRUCK AIRPOR
AT 570
Do 19.05. 21:20161382 %1028
1028
961
NW 5 (19) - 7 (30)6000Stark bewölkt (3700)
Wolkig (2400)
Wolkig Cb (1200)
Gewitter mit Regen
INNSBRUCK AIRPOR
AT 570
Do 19.05. 20:50221460 %1024
1022
957
SSO 3 (10)
OSO - S
Bald zeitweise:
W 4 (15) - 7 (30)
>= 10000Stark bewölkt (3700)
Wolkig (2400)
Leicht bewölkt (2100)
Leicht bewölkt Cb (2100)
 Bald zeitweise: Gewitter mit Regen
INNSBRUCK AIRPOR
AT 570
Do 19.05. 20:20241350 %1023
1021
956
SSO 2 (6)
O - S
Bald zeitweise:
W 4 (15) - 7 (30)
>= 10000Stark bewölkt (3700)
Wolkig (2400)
Leicht bewölkt (2100)
Leicht bewölkt Cb (2100)
 Bald zeitweise: Gewitter mit Regen
INNSBRUCK AIRPOR
AT 570
Do 19.05. 19:50251244 %1022
1020
955
S 3 (7)
SO - WSW
>= 10000Stark bewölkt (3700)
Wolkig (2400)
Leicht bewölkt (2100)
Leicht bewölkt Cb (2100)
 
INNSBRUCK AIRPOR
AT 570
Do 19.05. 19:20261242 %1022
1020
955
SSO 3 (9)
OSO - S
>= 10000Stark bewölkt (3700)
Wolkig (2400)
Leicht bewölkt (2100)
Leicht bewölkt Cb (2100)
 
INNSBRUCK AIRPOR
AT 570
Do 19.05. 18:50271342 %1021
1018
954
ONO 2 (6)
N - O
Bald zeitweise:
W 4 (15) - 7 (30)
>= 10000Stark bewölkt (3400)
Wolkig (2400)
Leicht bewölkt (2100)
Leicht bewölkt Cb (2100)
 Bald zeitweise: Gewitter mit Regen
INNSBRUCK AIRPOR
AT 570
Do 19.05. 18:20281340 %1021
1018
954
O 2 (6)
NO - SO
>= 10000Wolkig (2400)
Leicht bewölkt (2100)
Leicht bewölkt Cb (2100)
 
INNSBRUCK AIRPOR
AT 570
Do 19.05. 17:50291133 %1021
1018
954
NO 2 (5)
NW - OSO
>= 10000Wolkig (2400)
Leicht bewölkt (2100)
Leicht bewölkt Cb (2100)
 
INNSBRUCK AIRPOR
AT 570
Do 19.05. 17:20291235 %1021
1018
954
Uml 2 (3)>= 10000Wolkig (2400)
Leicht bewölkt (2100)
Leicht bewölkt Cb (2100)
 
INNSBRUCK AIRPOR
AT 570
Do 19.05. 16:50291031 %1021
1018
954
Uml 2 (4)>= 10000Wolkig (2400)
Leicht bewölkt (2100)
Leicht bewölkt Cb (2100)
 
INNSBRUCK AIRPOR
AT 570
Do 19.05. 16:20291440 %1021
1018
954
Uml 1 (2)>= 10000Wolkig (2400)
Leicht bewölkt (2100)
Leicht bewölkt Cb (2100)
 
INNSBRUCK AIRPOR
AT 570
Do 19.05. 15:50301029 %1021
1018
954
ONO 3 (10)>= 10000Wolkig (2400)
Leicht bewölkt (2100)
Leicht bewölkt (2100)
 
INNSBRUCK AIRPOR
AT 570
Do 19.05. 15:20301233 %1021
1018
954
NNO 3 (9)>= 10000Wolkig (2400)
Leicht bewölkt (2100)
Leicht bewölkt Cb (2100)
 
INNSBRUCK AIRPOR
AT 570
Do 19.05. 14:50301029 %1021
1018
954
N 3 (8)
NW - NO
>= 10000Wolkig (2400)
Leicht bewölkt (2100)
Leicht bewölkt Cb (2100)
Regen-Schauer (schwach)
INNSBRUCK AIRPOR
AT 570
Do 19.05. 14:20311027 %1021
1017
954
Uml 2 (4)>= 10000Wolkig (2400)
Leicht bewölkt (2000)
 
INNSBRUCK AIRPOR
AT 570
Do 19.05. 13:5030927 %1022
1019
955
O 2 (4)
NO - SO
>= 10000Wolkig (2400)
Leicht bewölkt (2000)
 
INNSBRUCK AIRPOR
AT 570
Do 19.05. 13:20291031 %1022
1019
955
NO 2 (4)
N - OSO
>= 10000Wolkig (2400)
Leicht bewölkt (2000)
 
INNSBRUCK AIRPOR
AT 570
Do 19.05. 12:50281135 %1022
1019
955
Uml 1 (2)>= 10000Leicht bewölkt (2400) 
INNSBRUCK AIRPOR
AT 570
Do 19.05. 12:20271034 %1023
1020
956
Uml 2 (4)>= 10000Leicht bewölkt (2400) 
INNSBRUCK AIRPOR
AT 570
Do 19.05. 11:50261139 %1023
1021
956
W 2 (5)
SSW - NNW
>= 10000Leicht bewölkt (2100) 
INNSBRUCK AIRPOR
AT 570
Do 19.05. 11:20251039 %1024
1022
957
WNW 2 (5)
WSW - NNW
>= 10000Leicht bewölkt (2000) 
INNSBRUCK AIRPOR
AT 570
Do 19.05. 10:50241247 %1024
1022
957
W 3 (8)
WSW - WNW
>= 10000Leicht bewölkt (2000) 
INNSBRUCK AIRPOR
AT 570
Do 19.05. 10:20231147 %1024
1022
957
W 3 (10)>= 10000Leicht bewölkt (2100) 
INNSBRUCK AIRPOR
AT 570
Do 19.05. 09:50211256 %1024
1023
957
W 3 (10)>= 10000Leicht bewölkt (2100) 
INNSBRUCK AIRPOR
AT 570
Do 19.05. 09:20201156 %1025
1024
958
W 3 (10)>= 10000Leicht bewölkt (2100) 
INNSBRUCK AIRPOR
AT 570
Do 19.05. 08:50191160 %1025
1024
958
W 3 (8)>= 10000Leicht bewölkt (2100) 
INNSBRUCK AIRPOR
AT 570
Do 19.05. 08:20171168 %1025
1025
958
WNW 3 (8)>= 10000Leicht bewölkt (2100) 
INNSBRUCK AIRPOR
AT 570
Do 19.05. 07:50151177 %1025
1025
958
W 3 (9)>= 10000Leicht bewölkt (2100) 
INNSBRUCK AIRPOR
AT 570
Do 19.05. 07:20151072 %1025
1025
958
W 2 (4)>= 10000Nicht signifikant 
INNSBRUCK AIRPOR
AT 570
Do 19.05. 06:50131082 %1025
1026
958
W 2 (3)
W - NW
>= 10000Nicht signifikant 
INNSBRUCK AIRPOR
AT 570
Do 19.05. 06:2012982 %1025
1026
958
Uml 1 (1)>= 10000Nicht signifikant 
INNSBRUCK AIRPOR
AT 570
Do 19.05. 05:5012982 %1025
1026
958
Uml 1 (1)>= 10000Nicht signifikant 
INNSBRUCK AIRPOR
AT 570
Do 19.05. 05:2012982 %1024
1025
957
Uml 1 (1)>= 10000  
INNSBRUCK AIRPOR
AT 570
Do 19.05. 04:5012982 %1024
1025
957
Uml 1 (2)>= 10000  
INNSBRUCK AIRPOR
AT 570
Do 19.05. 04:2012982 %1024
1025
957
WSW 1 (2)>= 10000  
INNSBRUCK AIRPOR
AT 570
Do 19.05. 03:5013977 %1024
1025
957
Uml 1 (2)>= 10000  
INNSBRUCK AIRPOR
AT 570
Do 19.05. 03:2013977 %1024
1025
957
Uml 1 (1)>= 10000  
INNSBRUCK AIRPOR
AT 570
Do 19.05. 02:5013977 %1024
1025
957
Uml 1 (2)>= 10000  
INNSBRUCK AIRPOR
AT 570
Do 19.05. 02:2014972 %1024
1024
957
Uml 1 (2)>= 10000  
INNSBRUCK AIRPOR
AT 570
Do 19.05. 01:50151072 %1024
1024
957
W 1 (2)>= 10000  
INNSBRUCK AIRPOR
AT 570
Do 19.05. 01:2015967 %1025
1025
958
Uml 1 (2)>= 10000  
INNSBRUCK AIRPOR
AT 570
Do 19.05. 00:5016963 %1024
1024
957
O 2 (3)>= 10000  
INNSBRUCK AIRPOR
AT 570
Do 19.05. 00:2018956 %1024
1023
957
SO 3 (9)
O - SSO
>= 10000  
INNSBRUCK AIRPOR
AT 570
Mi 18.05. 23:50171063 %1024
1024
957
O 2 (5)>= 10000  
INNSBRUCK AIRPOR
AT 570
Mi 18.05. 23:20161172 %1024
1024
957
Uml 1 (2)>= 10000  
INNSBRUCK AIRPOR
AT 570
Mi 18.05. 22:50181059 %1024
1023
957
Uml 1 (2)>= 10000Nicht signifikant 
INNSBRUCK AIRPOR
AT 570
Mi 18.05. 22:20181059 %1024
1023
957
Uml 1 (2)>= 10000Nicht signifikant 
INNSBRUCK AIRPOR
AT 570
Mi 18.05. 21:50181059 %1023
1022
956
N 1 (2)>= 10000Nicht signifikant 
INNSBRUCK AIRPOR
AT 570
Mi 18.05. 21:20201053 %1023
1022
956
Uml 1 (2)>= 10000Nicht signifikant 
INNSBRUCK AIRPOR
AT 570
Mi 18.05. 20:50211049 %1022
1021
955
O 3 (7)>= 10000Nicht signifikant 
INNSBRUCK AIRPOR
AT 570
Mi 18.05. 20:20221046 %1022
1020
955
ONO 3 (9)>= 10000Leicht bewölkt (2400) 
INNSBRUCK AIRPOR
AT 570
Mi 18.05. 19:50221046 %1022
1020
955
ONO 3 (10)>= 10000Leicht bewölkt (2400) 
INNSBRUCK AIRPOR
AT 570
Mi 18.05. 19:20241041 %1021
1019
954
O 4 (14)
NO - OSO
>= 10000Leicht bewölkt (2400) 
INNSBRUCK AIRPOR
AT 570
Mi 18.05. 18:5025834 %1021
1019
954
O 4 (14)>= 10000Leicht bewölkt (2400) 
INNSBRUCK AIRPOR
AT 570
Mi 18.05. 18:2026832 %1021
1019
954
O 3 (9)
ONO - OSO
>= 10000Leicht bewölkt (2400) 
INNSBRUCK AIRPOR
AT 570
Mi 18.05. 17:5027728 %1021
1018
954
ONO 2 (5)
NO - O
>= 10000Leicht bewölkt (2400) 
INNSBRUCK AIRPOR
AT 570
Mi 18.05. 17:2026628 %1021
1019
954
O 2 (6)
NO - OSO
>= 10000Leicht bewölkt (2400) 
INNSBRUCK AIRPOR
AT 570
Mi 18.05. 16:5026628 %1021
1019
954
O 2 (6)
NO - OSO
>= 10000Leicht bewölkt (2400) 
INNSBRUCK AIRPOR
AT 570
Mi 18.05. 16:2026730 %1022
1020
955
ONO 3 (8)
NNO - OSO
>= 10000Wolkig (3000)
Leicht bewölkt (2400)
 
INNSBRUCK AIRPOR
AT 570
Mi 18.05. 15:5026730 %1022
1020
955
O 2 (6)
NNO - OSO
>= 10000Wolkig (3000)
Leicht bewölkt (2400)
 
INNSBRUCK AIRPOR
AT 570
Mi 18.05. 15:2025936 %1022
1020
955
ONO 2 (6)
NNO - OSO
>= 10000Stark bewölkt (3000)
Leicht bewölkt (2400)
 

Altimeter: Einstellung am Altimeter (Höhenmesser), die Höhe 0 muss auf diesen Luftdruckwert zeigen, damit das Gerät die Stationshöhe richtig anzeigt.

NN: Luftdruck reduziert auf "Normal Null", auf Meereshöhe, dieser von der Temperatur abhängige Wert wird bisweilen unkorrekt einfach als "Luftdruck" bezeichnet. Eigentlich nur eine fiktive Größe, die es erlaubt, Stationen auf unterschiedlichen Höhen miteinander zu vergleichen.

Station: Realer Luftdruck an der Station.